Time;durP1;ratioP1;P1;durP2;ratioP2;P2;SDS_P1;SDS_P2;PMS_P1;PMS_P2;Temp;Humidity;BMP_temperature;BMP_pressure;BME280_temperature;BME280_humidity;BME280_pressure;Samples;Min_cycle;Max_cycle;Signal;HPM_P1;HPM_P2
2023/10/27 00:00:45;;;;;;;;;;;14.90;64.30;;;13.87;63.66;99151.56;12284890;19;19919;-84
2023/10/27 00:04:47;;;;;;;;;;;15.00;64.50;;;13.80;63.56;99140.00;12287795;19;19943;-83
2023/10/27 00:08:48;;;;;;;;;;;15.00;64.50;;;13.90;63.62;99150.44;12288170;19;19911;-83
2023/10/27 00:12:51;;;;;;;;;;;15.00;64.50;;;13.89;63.62;99147.00;12284695;19;19919;-83
2023/10/27 00:16:54;;;;;;;;;;;15.00;64.50;;;13.86;63.72;99130.75;12287249;19;19922;-83
2023/10/27 00:20:56;;;;;;;;;;;15.00;64.40;;;13.81;63.65;99131.16;12287548;19;19936;-84
2023/10/27 00:24:57;;;;;;;;;;;15.00;64.50;;;13.84;63.69;99130.03;12288074;19;19932;-83
2023/10/27 00:28:59;;;;;;;;;;;14.90;64.30;;;13.86;63.54;99135.97;12281678;19;19919;-83
2023/10/27 00:33:01;;;;;;;;;;;15.00;64.40;;;13.81;63.58;99125.09;12285975;19;19934;-83
2023/10/27 00:37:02;;;;;;;;;;;14.90;64.30;;;13.81;63.56;99130.34;12284228;19;20330;-82
2023/10/27 00:41:04;;;;;;;;;;;14.90;64.30;;;13.72;63.55;99117.13;12286256;19;19939;-82
2023/10/27 00:45:06;;;;;;;;;;;14.90;64.40;;;13.77;63.56;99121.94;12287652;19;20325;-83
2023/10/27 00:49:07;;;;;;;;;;;14.90;64.30;;;13.76;63.56;99116.81;12285073;19;19918;-82
2023/10/27 00:53:09;;;;;;;;;;;14.90;64.50;;;13.76;63.59;99109.78;12285932;19;19925;-84
2023/10/27 00:57:11;;;;;;;;;;;14.90;64.40;;;13.70;63.54;99092.81;12281379;19;19925;-82
2023/10/27 01:01:17;;;;;;;;;;;14.80;64.40;;;13.65;63.64;99089.81;12277824;19;19930;-83
2023/10/27 01:05:19;;;;;;;;;;;14.80;64.30;;;13.70;63.52;99092.81;12280673;19;19923;-83
2023/10/27 01:09:20;;;;;;;;;;;14.80;64.30;;;13.64;63.50;99082.91;12279396;19;19915;-84
2023/10/27 01:13:22;;;;;;;;;;;14.80;64.40;;;13.64;63.60;99085.53;12279904;19;19990;-83
2023/10/27 01:17:24;;;;;;;;;;;14.80;64.50;;;13.67;63.71;99082.63;12282042;19;19922;-84
2023/10/27 01:21:26;;;;;;;;;;;14.80;64.60;;;13.68;63.55;99086.88;12277277;19;19922;-84
2023/10/27 01:25:27;;;;;;;;;;;14.80;64.70;;;13.66;63.58;99085.38;12278857;19;19915;-83
2023/10/27 01:29:30;;;;;;;;;;;14.70;64.50;;;13.66;63.59;99080.97;12273797;19;19947;-82
2023/10/27 01:33:32;;;;;;;;;;;14.70;64.60;;;13.61;63.71;99066.63;12280819;19;19919;-83
2023/10/27 01:37:34;;;;;;;;;;;14.70;64.50;;;13.59;63.65;99058.91;12280328;19;19923;-83
2023/10/27 01:41:35;;;;;;;;;;;14.70;64.50;;;13.54;63.58;99053.28;12281821;19;19922;-83
2023/10/27 01:45:37;;;;;;;;;;;14.70;64.50;;;13.67;63.67;99066.06;12280493;19;19932;-83
2023/10/27 01:49:39;;;;;;;;;;;14.80;64.50;;;13.66;63.69;99067.88;12277394;19;19927;-83
2023/10/27 01:53:40;;;;;;;;;;;14.80;64.50;;;13.67;63.70;99060.81;12279219;19;19919;-83
2023/10/27 01:57:43;;;;;;;;;;;14.70;64.50;;;13.43;63.76;99022.00;12277942;19;20233;-84
2023/10/27 02:01:44;;;;;;;;;;;14.90;65.30;;;13.58;63.69;99036.25;12280855;19;19929;-84
2023/10/27 02:05:47;;;;;;;;;;;14.80;64.60;;;13.71;63.68;99062.16;12278846;19;19915;-83
2023/10/27 02:09:50;;;;;;;;;;;14.80;64.50;;;13.66;63.42;99049.50;12287342;19;19931;-82
2023/10/27 02:13:53;;;;;;;;;;;14.80;64.50;;;13.60;63.64;99038.75;12290616;19;19915;-83
2023/10/27 02:17:55;;;;;;;;;;;14.70;64.40;;;13.66;63.77;99051.28;12291382;19;19933;-84
2023/10/27 02:21:57;;;;;;;;;;;14.80;64.50;;;13.62;63.74;99058.63;12290684;19;19986;-84
2023/10/27 02:25:59;;;;;;;;;;;14.70;64.50;;;13.67;63.71;99060.81;12289827;19;19923;-83
2023/10/27 02:30:00;;;;;;;;;;;14.80;64.50;;;13.66;63.65;99065.25;12285953;19;20237;-84
2023/10/27 02:34:01;;;;;;;;;;;14.70;64.50;;;13.63;63.75;99051.56;12289109;19;19930;-83
2023/10/27 02:38:04;;;;;;;;;;;14.70;64.60;;;13.67;63.76;99066.88;12291566;19;19919;-84
2023/10/27 02:42:05;;;;;;;;;;;14.70;65.20;;;13.67;63.69;99069.50;12289740;19;19923;-83
2023/10/27 02:46:09;;;;;;;;;;;14.70;64.50;;;13.53;63.76;99050.78;12289565;19;19915;-84
2023/10/27 02:50:11;;;;;;;;;;;14.70;64.50;;;13.65;63.76;99079.31;12289322;19;20466;-83
2023/10/27 02:54:13;;;;;;;;;;;14.70;64.50;;;13.62;63.72;99073.53;12288623;19;19927;-83
2023/10/27 02:58:14;;;;;;;;;;;14.70;64.60;;;13.56;63.75;99064.44;12287029;19;19919;-83
2023/10/27 03:02:18;;;;;;;;;;;14.70;64.60;;;13.65;63.74;99074.06;12284488;19;19919;-83
2023/10/27 03:06:19;;;;;;;;;;;14.70;65.40;;;13.64;63.80;99082.91;12288547;19;20007;-84
2023/10/27 03:10:21;;;;;;;;;;;14.70;64.60;;;13.64;63.81;99079.47;12285941;19;19919;-84
2023/10/27 03:14:23;;;;;;;;;;;14.70;64.50;;;13.63;63.72;99072.56;12289043;19;19923;-85
2023/10/27 03:18:25;;;;;;;;;;;14.70;64.60;;;13.59;63.72;99082.53;12283351;19;19926;-83
2023/10/27 03:22:27;;;;;;;;;;;14.70;64.50;;;13.59;63.68;99077.28;12288069;19;19926;-84
2023/10/27 03:26:29;;;;;;;;;;;14.70;64.50;;;13.55;63.66;99067.22;12288444;19;19923;-84
2023/10/27 03:30:31;;;;;;;;;;;14.70;64.50;;;13.45;63.65;99056.78;12285179;19;19927;-83
2023/10/27 03:34:33;;;;;;;;;;;14.70;64.70;;;13.56;63.78;99071.50;12286402;19;19966;-83
2023/10/27 03:38:36;;;;;;;;;;;14.70;64.70;;;13.50;63.68;99065.00;12284547;19;19915;-83
2023/10/27 03:42:38;;;;;;;;;;;14.70;64.80;;;13.49;63.85;99060.75;12287326;19;19918;-83
2023/10/27 03:46:39;;;;;;;;;;;14.60;64.80;;;13.56;63.81;99068.88;12287094;19;19919;-82
2023/10/27 03:50:41;;;;;;;;;;;14.60;64.80;;;13.54;63.62;99065.56;12285616;19;19919;-83
2023/10/27 03:54:43;;;;;;;;;;;14.60;64.80;;;13.50;63.74;99065.84;12288199;19;19919;-84
2023/10/27 03:58:44;;;;;;;;;;;14.70;64.80;;;13.48;63.79;99051.25;12286524;19;20326;-83
2023/10/27 04:02:46;;;;;;;;;;;14.60;64.80;;;13.53;63.75;99054.25;12289622;19;19921;-83
2023/10/27 04:06:47;;;;;;;;;;;14.60;64.90;;;13.54;63.81;99060.31;12289696;19;19929;-83
2023/10/27 04:10:48;;;;;;;;;;;14.60;64.90;;;13.45;63.72;99046.28;12287057;19;20316;-85
2023/10/27 04:14:50;;;;;;;;;;;14.60;64.90;;;13.48;63.74;99048.63;12273684;19;19921;-84
2023/10/27 04:18:51;;;;;;;;;;;14.60;64.80;;;13.41;63.71;99045.72;12280596;19;19907;-83
2023/10/27 04:22:53;;;;;;;;;;;14.60;64.80;;;13.47;63.75;99052.19;12278745;19;19919;-84
2023/10/27 04:26:54;;;;;;;;;;;14.50;65.00;;;13.47;63.74;99057.44;12283259;19;19947;-83
2023/10/27 04:30:56;;;;;;;;;;;14.60;65.40;;;13.40;63.80;99048.50;12279722;19;19944;-84
2023/10/27 04:34:57;;;;;;;;;;;14.50;65.40;;;13.39;63.83;99054.72;12273286;19;19918;-84
2023/10/27 04:38:58;;;;;;;;;;;14.70;65.40;;;13.41;63.83;99048.34;12279926;19;19919;-83
2023/10/27 04:43:00;;;;;;;;;;;14.50;65.80;;;13.41;63.92;99047.53;12281248;19;19930;-83
2023/10/27 04:47:02;;;;;;;;;;;14.50;65.60;;;13.30;63.91;99026.75;12279329;19;19919;-85
2023/10/27 04:51:04;;;;;;;;;;;14.60;65.60;;;13.39;63.90;99029.31;12270667;19;19943;-85
2023/10/27 04:55:06;;;;;;;;;;;14.50;65.90;;;13.39;63.79;99034.56;12282225;19;19930;-83
2023/10/27 04:59:08;;;;;;;;;;;14.50;65.80;;;13.18;63.77;99008.56;12276492;19;19924;-85
2023/10/27 05:03:09;;;;;;;;;;;14.50;65.60;;;13.37;63.77;99036.50;12280290;19;19938;-83
2023/10/27 05:07:11;;;;;;;;;;;14.60;65.80;;;13.40;63.82;99038.03;12272802;19;19932;-84
2023/10/27 05:11:13;;;;;;;;;;;14.50;65.60;;;13.35;63.92;99030.59;12276676;19;19910;-84
2023/10/27 05:15:14;;;;;;;;;;;14.50;66.30;;;13.38;63.76;99024.22;12278291;19;19934;-84
2023/10/27 05:19:16;;;;;;;;;;;14.50;65.70;;;13.42;63.91;99028.19;12279576;19;19910;-84
2023/10/27 05:23:18;;;;;;;;;;;14.50;65.80;;;13.38;63.88;99019.81;12280832;19;19921;-85
2023/10/27 05:27:20;;;;;;;;;;;14.50;65.70;;;13.41;63.80;99022.13;12281080;19;19918;-84
2023/10/27 05:31:22;;;;;;;;;;;14.50;65.90;;;13.40;63.87;99027.53;12274642;19;19926;-84
2023/10/27 05:35:23;;;;;;;;;;;14.50;65.80;;;13.26;63.84;99000.00;12280093;19;19919;-83
2023/10/27 05:39:26;;;;;;;;;;;14.50;65.90;;;13.40;63.98;99012.63;12278445;19;19923;-84
2023/10/27 05:43:28;;;;;;;;;;;14.50;65.80;;;13.39;63.89;99013.56;12290154;19;19926;-83
2023/10/27 05:47:30;;;;;;;;;;;14.40;66.00;;;13.36;63.87;99021.72;12291137;19;19915;-83
2023/10/27 05:51:34;;;;;;;;;;;14.50;66.20;;;13.35;63.91;99027.97;12282454;19;19942;-83
2023/10/27 05:55:36;;;;;;;;;;;14.40;65.80;;;13.35;63.90;99035.00;12285312;19;19929;-85
2023/10/27 05:59:37;;;;;;;;;;;14.40;65.80;;;13.36;63.92;99036.66;12288287;19;19926;-84
2023/10/27 06:03:39;;;;;;;;;;;14.40;65.80;;;13.27;63.89;99022.63;12271098;19;19918;-84
2023/10/27 06:07:41;;;;;;;;;;;14.40;65.90;;;13.28;63.85;99022.47;12264298;19;20320;-82
2023/10/27 06:11:43;;;;;;;;;;;14.40;65.80;;;13.36;63.86;99036.66;12265177;19;19918;-84
2023/10/27 06:15:45;;;;;;;;;;;14.40;65.90;;;13.37;63.89;99038.31;12270750;19;19986;-83
2023/10/27 06:19:47;;;;;;;;;;;14.40;65.90;;;13.33;64.02;99029.06;12267576;19;19927;-82
2023/10/27 06:23:48;;;;;;;;;;;14.40;66.00;;;13.41;63.91;99026.56;12277176;19;19960;-82
2023/10/27 06:27:50;;;;;;;;;;;14.40;66.00;;;13.42;63.89;99042.16;12263568;19;19923;-82
2023/10/27 06:31:51;;;;;;;;;;;14.50;65.90;;;13.40;63.92;99036.22;12264507;19;19952;-83
2023/10/27 06:35:55;;;;;;;;;;;14.50;65.70;;;13.39;63.94;99031.94;12263485;19;19927;-83
2023/10/27 06:40:01;;;;;;;;;;;14.50;65.90;;;13.46;64.03;99047.94;12254722;19;19927;-83
2023/10/27 06:44:04;;;;;;;;;;;14.50;65.80;;;13.44;64.02;99057.72;12255512;19;20631;-82
2023/10/27 06:48:05;;;;;;;;;;;14.50;65.60;;;13.44;64.01;99057.72;12252572;19;19927;-82
2023/10/27 06:52:07;;;;;;;;;;;14.50;65.70;;;13.42;63.97;99057.03;12250781;19;19918;-82
2023/10/27 06:56:09;;;;;;;;;;;14.60;65.80;;;13.42;63.97;99055.25;12255353;19;19942;-82
2023/10/27 07:00:11;;;;;;;;;;;14.60;65.70;;;13.48;63.91;99069.59;12251141;19;20262;-82
2023/10/27 07:04:13;;;;;;;;;;;14.60;65.60;;;13.46;63.89;99074.97;12256858;19;19915;-82
2023/10/27 07:08:16;;;;;;;;;;;14.60;65.60;;;13.47;63.93;99081.03;12255341;19;19921;-83
2023/10/27 07:12:18;;;;;;;;;;;14.60;65.50;;;13.48;64.03;99082.72;12256370;19;20636;-82
2023/10/27 07:16:19;;;;;;;;;;;14.50;65.40;;;13.50;64.01;99099.09;12254138;19;20034;-83
2023/10/27 07:20:21;;;;;;;;;;;14.60;65.50;;;13.50;64.08;99091.22;12252140;19;19922;-82
2023/10/27 07:24:23;;;;;;;;;;;14.60;65.40;;;13.53;63.98;99101.47;12254501;19;20016;-83
2023/10/27 07:28:25;;;;;;;;;;;14.60;65.50;;;13.53;64.00;99101.47;12252483;19;19994;-82
2023/10/27 07:32:26;;;;;;;;;;;14.60;65.60;;;13.52;63.96;99109.47;12251447;19;19931;-83
2023/10/27 07:36:28;;;;;;;;;;;14.60;65.40;;;13.46;63.96;99090.69;12255851;19;19925;-82
2023/10/27 07:40:30;;;;;;;;;;;14.60;65.30;;;13.49;63.97;99079.09;12260533;19;19922;-82
2023/10/27 07:44:31;;;;;;;;;;;14.70;65.50;;;13.55;64.02;99088.19;12265282;19;19915;-82
2023/10/27 07:48:33;;;;;;;;;;;14.60;65.40;;;13.46;64.06;99076.78;12267345;19;19927;-83
2023/10/27 07:52:35;;;;;;;;;;;14.70;65.60;;;13.52;64.12;99078.00;12264452;19;19936;-82
2023/10/27 07:56:36;;;;;;;;;;;14.70;65.60;;;13.06;64.01;99005.25;12258198;19;19922;-84
2023/10/27 08:00:38;;;;;;;;;;;14.60;65.50;;;13.49;63.95;99082.53;12270424;19;19914;-83
2023/10/27 08:04:40;;;;;;;;;;;14.70;65.60;;;13.43;64.03;99072.63;12254084;19;20368;-82
2023/10/27 08:08:42;;;;;;;;;;;14.60;65.50;;;13.48;63.96;99083.53;12248042;19;19946;-82
2023/10/27 08:12:43;;;;;;;;;;;14.60;65.60;;;13.50;63.99;99086.00;12248908;19;19929;-82
2023/10/27 08:16:45;;;;;;;;;;;14.60;65.50;;;13.40;64.04;99062.44;12250922;19;19923;-85
2023/10/27 08:20:48;;;;;;;;;;;14.60;65.60;;;13.47;63.98;99070.53;12255052;19;19939;-82
2023/10/27 08:24:49;;;;;;;;;;;14.60;65.80;;;13.42;64.04;99067.53;12241659;19;19923;-83
2023/10/27 08:28:50;;;;;;;;;;;14.60;65.90;;;13.31;64.08;99047.56;12249393;19;19923;-83
2023/10/27 08:32:53;;;;;;;;;;;14.60;66.00;;;13.41;64.28;99060.63;12252236;19;19922;-83
2023/10/27 08:36:54;;;;;;;;;;;14.50;66.10;;;13.44;64.15;99057.72;12251386;19;19915;-83
2023/10/27 08:40:57;;;;;;;;;;;14.60;66.10;;;13.43;64.07;99049.03;12249927;19;19918;-83
2023/10/27 08:44:59;;;;;;;;;;;14.50;66.00;;;13.44;64.21;99061.16;12252244;19;19918;-82
2023/10/27 08:49:01;;;;;;;;;;;14.60;66.30;;;13.49;64.14;99068.63;12251685;19;19921;-83
2023/10/27 08:53:04;;;;;;;;;;;14.50;66.30;;;13.43;64.11;99062.16;12252048;19;19915;-83
2023/10/27 08:57:05;;;;;;;;;;;14.60;66.20;;;13.33;64.15;99044.81;12251187;19;19915;-83
2023/10/27 09:01:07;;;;;;;;;;;14.60;66.00;;;13.51;64.08;99074.56;12253204;19;20283;-83
2023/10/27 09:05:09;;;;;;;;;;;14.60;65.90;;;13.54;64.13;99071.63;12254130;19;19919;-82
2023/10/27 09:09:11;;;;;;;;;;;14.60;65.90;;;13.48;64.15;99056.47;12249694;19;20271;-82
2023/10/27 09:13:12;;;;;;;;;;;14.60;66.00;;;13.55;64.01;99072.44;12254422;19;19919;-84
2023/10/27 09:17:14;;;;;;;;;;;14.60;65.80;;;13.54;64.18;99063.75;12250182;19;19958;-84
2023/10/27 09:21:28;;;;;;;;;;;14.70;65.90;;;13.31;64.11;99026.59;12249415;19;19934;-82
2023/10/27 09:25:34;;;;;;;;;;;14.70;65.90;;;13.47;64.10;99054.81;12257141;19;19915;-83
2023/10/27 09:29:40;;;;;;;;;;;14.70;65.70;;;13.58;64.17;99065.09;12258313;19;19951;-82
2023/10/27 09:33:41;;;;;;;;;;;14.60;65.60;;;13.59;64.03;99072.03;12266499;19;19922;-83
2023/10/27 09:37:43;;;;;;;;;;;14.70;66.00;;;13.59;64.09;99072.03;12263939;19;19918;-83
2023/10/27 09:41:54;;;;;;;;;;;14.70;65.80;;;13.55;64.04;99067.22;12263751;19;19915;-83
2023/10/27 09:46:00;;;;;;;;;;;14.70;65.90;;;13.47;64.24;99054.81;12259496;19;19925;-83
2023/10/27 09:50:06;;;;;;;;;;;14.70;65.90;;;13.55;64.10;99070.66;12258623;19;20140;-82
2023/10/27 09:54:08;;;;;;;;;;;14.60;65.80;;;13.46;64.29;99050.56;12261312;19;19923;-83
2023/10/27 09:58:09;;;;;;;;;;;14.70;66.20;;;13.55;64.23;99056.72;12258964;19;19918;-83
2023/10/27 10:02:11;;;;;;;;;;;14.60;66.00;;;13.51;64.23;99061.44;12263282;19;19923;-83
2023/10/27 10:06:19;;;;;;;;;;;14.70;66.00;;;13.38;64.11;99037.34;12259014;19;19927;-83
2023/10/27 10:10:32;;;;;;;;;;;14.70;65.90;;;13.59;64.11;99072.03;12262395;19;19947;-82
2023/10/27 10:14:36;;;;;;;;;;;14.70;65.70;;;13.59;64.11;99068.59;12269292;19;19923;-83
2023/10/27 10:18:38;;;;;;;;;;;14.70;65.70;;;13.61;64.15;99072.72;12259858;19;19915;-83
2023/10/27 10:22:40;;;;;;;;;;;14.70;65.90;;;13.64;64.28;99059.31;12260423;19;20018;-82
2023/10/27 10:27:13;;;;;;;;;;;14.70;65.90;;;13.62;64.09;99058.63;12248824;19;19943;-83
2023/10/27 10:31:16;;;;;;;;;;;14.80;65.90;;;13.62;64.13;99045.50;12249784;19;19951;-83
2023/10/27 10:35:27;;;;;;;;;;;14.80;65.60;;;13.62;64.24;99048.13;12253165;19;20329;-83
2023/10/27 10:39:28;;;;;;;;;;;14.80;65.70;;;13.64;64.25;99035.69;12252187;19;19953;-82
2023/10/27 10:43:40;;;;;;;;;;;14.80;65.70;;;13.65;64.12;99042.59;12259318;19;19922;-83
2023/10/27 10:47:42;;;;;;;;;;;14.80;65.40;;;13.51;64.21;99024.72;12263982;19;20500;-83
2023/10/27 10:51:43;;;;;;;;;;;14.80;65.30;;;13.60;64.26;99036.13;12255068;19;20340;-82
2023/10/27 10:55:46;;;;;;;;;;;14.80;65.30;;;13.68;64.23;99046.72;12257695;19;19926;-82
2023/10/27 10:59:54;;;;;;;;;;;14.80;65.20;;;13.60;64.22;99023.00;12255838;19;19942;-82
2023/10/27 11:03:56;;;;;;;;;;;14.80;65.20;;;13.70;64.25;99040.34;12261686;19;19943;-83
2023/10/27 11:07:58;;;;;;;;;;;14.80;65.20;;;13.72;64.20;99040.22;12271936;19;19922;-82
2023/10/27 11:12:01;;;;;;;;;;;14.80;65.30;;;13.51;64.37;99003.75;12268021;19;19934;-82
2023/10/27 11:16:11;;;;;;;;;;;14.80;65.10;;;13.69;64.23;99032.63;12260231;19;19921;-83
2023/10/27 11:20:13;;;;;;;;;;;14.80;65.70;;;13.68;64.31;99029.19;12259435;19;20376;-83
2023/10/27 11:24:14;;;;;;;;;;;14.80;65.10;;;13.72;64.26;99043.66;12260109;19;20262;-83
2023/10/27 11:28:20;;;;;;;;;;;14.80;65.70;;;13.75;64.23;99041.72;12260691;19;19918;-83
2023/10/27 11:32:22;;;;;;;;;;;14.90;65.10;;;13.72;64.18;99038.41;12265953;19;19911;-82
2023/10/27 11:36:27;;;;;;;;;;;14.80;65.00;;;13.71;64.20;99042.00;12276357;19;19952;-83
2023/10/27 11:40:29;;;;;;;;;;;14.80;65.00;;;13.68;64.29;99036.22;12266080;19;20258;-83
2023/10/27 11:44:31;;;;;;;;;;;14.90;65.00;;;13.78;64.26;99051.94;12249063;19;20345;-82
2023/10/27 11:48:32;;;;;;;;;;;14.90;65.10;;;13.79;64.24;99058.81;12248888;19;19923;-83
2023/10/27 11:52:34;;;;;;;;;;;14.90;65.00;;;13.70;64.16;99042.97;12249786;19;19929;-82
2023/10/27 11:56:35;;;;;;;;;;;14.90;64.70;;;13.78;64.19;99057.16;12254233;19;20333;-83
2023/10/27 12:00:36;;;;;;;;;;;14.90;64.80;;;13.65;64.26;99032.09;12249190;19;19922;-83
2023/10/27 12:04:38;;;;;;;;;;;14.90;64.80;;;13.72;64.16;99042.84;12250022;19;20329;-83
2023/10/27 12:08:40;;;;;;;;;;;14.90;64.80;;;13.76;64.21;99043.38;12260133;19;19933;-82
2023/10/27 12:12:41;;;;;;;;;;;14.90;64.90;;;13.46;64.20;98993.69;12265161;19;20626;-84
2023/10/27 12:16:43;;;;;;;;;;;15.00;65.00;;;13.85;64.16;99047.72;12271824;19;19971;-83
2023/10/27 12:20:45;;;;;;;;;;;15.00;64.80;;;13.86;64.11;99058.09;12260520;19;19941;-83
2023/10/27 12:24:46;;;;;;;;;;;15.00;64.80;;;13.79;64.13;99035.19;12225048;19;20732;-83
2023/10/27 12:28:55;;;;;;;;;;;15.00;64.70;;;13.72;64.22;99032.34;12263859;19;20277;-83
2023/10/27 12:32:57;;;;;;;;;;;15.00;64.50;;;13.84;64.18;99049.53;12276496;19;19922;-82
2023/10/27 12:36:59;;;;;;;;;;;15.00;64.70;;;13.86;64.22;99052.00;12276477;19;19934;-84
2023/10/27 12:41:00;;;;;;;;;;;15.00;64.50;;;13.81;64.11;99047.19;12271101;19;19946;-82
2023/10/27 12:45:03;;;;;;;;;;;15.00;64.40;;;13.84;63.97;99051.34;12268641;19;19933;-83
2023/10/27 12:49:04;;;;;;;;;;;15.00;64.20;;;13.81;64.02;99046.38;12271310;19;19923;-82
2023/10/27 12:53:08;;;;;;;;;;;15.00;64.30;;;13.76;64.04;99048.63;12273465;19;19922;-83
2023/10/27 12:57:09;;;;;;;;;;;15.00;64.00;;;13.80;64.13;99060.44;12273739;19;19927;-82
2023/10/27 13:01:11;;;;;;;;;;;14.90;64.10;;;13.79;64.04;99057.00;12267176;19;19925;-84
2023/10/27 13:05:14;;;;;;;;;;;14.90;64.20;;;13.77;64.07;99045.84;12272579;19;20241;-82
2023/10/27 13:09:16;;;;;;;;;;;14.90;64.30;;;13.73;64.11;99036.63;12269450;19;19914;-82
2023/10/27 13:13:18;;;;;;;;;;;14.90;65.10;;;13.80;64.02;99052.59;12274159;19;19939;-83
2023/10/27 13:17:20;;;;;;;;;;;14.90;64.50;;;13.77;64.11;99050.25;12268867;19;19935;-84
2023/10/27 13:21:22;;;;;;;;;;;14.90;64.60;;;13.77;64.09;99053.72;12270252;19;19915;-81
2023/10/27 13:25:24;;;;;;;;;;;14.90;64.60;;;13.78;64.08;99052.75;12274471;19;19923;-83
2023/10/27 13:29:26;;;;;;;;;;;14.90;64.70;;;13.72;64.04;99042.84;12271937;19;19927;-81
2023/10/27 13:33:27;;;;;;;;;;;14.90;64.60;;;13.80;64.06;99053.44;12268271;19;19911;-81
2023/10/27 13:37:29;;;;;;;;;;;14.90;64.70;;;13.80;63.95;99055.22;12264641;19;20351;-81
2023/10/27 13:41:34;;;;;;;;;;;14.90;64.70;;;13.81;64.00;99060.31;12268578;19;19930;-81
2023/10/27 13:45:35;;;;;;;;;;;14.90;64.80;;;13.72;63.99;99048.91;12266961;19;19927;-81
2023/10/27 13:49:38;;;;;;;;;;;14.90;64.80;;;13.83;63.97;99071.50;12261099;19;19919;-81
2023/10/27 13:53:41;;;;;;;;;;;14.90;64.80;;;13.79;64.10;99064.06;12266715;19;19949;-81
2023/10/27 13:57:42;;;;;;;;;;;15.00;64.90;;;13.84;63.96;99078.38;12266375;19;19915;-81
2023/10/27 14:01:44;;;;;;;;;;;15.00;64.70;;;13.84;64.13;99072.31;12267991;19;19922;-82
2023/10/27 14:05:49;;;;;;;;;;;15.00;64.70;;;13.69;64.04;99056.22;12266795;19;19929;-83
2023/10/27 14:09:51;;;;;;;;;;;14.90;64.70;;;13.80;64.07;99065.69;12277766;19;19918;-81
2023/10/27 14:13:53;;;;;;;;;;;14.90;64.80;;;13.87;64.07;99085.16;12280585;19;19923;-82
2023/10/27 14:17:55;;;;;;;;;;;15.00;65.00;;;13.73;64.03;99062.84;12280993;19;20010;-82
2023/10/27 14:21:56;;;;;;;;;;;15.00;64.90;;;13.88;64.06;99085.00;12279618;19;19923;-81
2023/10/27 14:25:58;;;;;;;;;;;15.00;64.90;;;13.77;64.06;99077.34;12280287;19;19918;-83
2023/10/27 14:30:01;;;;;;;;;;;14.90;64.80;;;13.58;64.07;99044.13;12275550;19;19915;-82
2023/10/27 14:34:05;;;;;;;;;;;15.00;65.00;;;13.89;63.98;99096.31;12282683;19;19928;-82
2023/10/27 14:38:06;;;;;;;;;;;15.00;65.10;;;13.87;64.06;99101.72;12286783;19;19938;-81
2023/10/27 14:42:08;;;;;;;;;;;14.90;64.90;;;13.84;63.81;99090.69;12285396;19;19919;-83
2023/10/27 14:46:11;;;;;;;;;;;14.90;64.80;;;13.82;63.95;99093.44;12288084;19;19922;-81
2023/10/27 14:50:13;;;;;;;;;;;14.90;64.80;;;13.82;63.98;99105.75;12283241;19;19933;-82
2023/10/27 14:54:14;;;;;;;;;;;14.90;64.80;;;13.80;63.99;99097.19;12287108;19;19923;-82
2023/10/27 14:58:15;;;;;;;;;;;14.90;65.50;;;13.79;64.02;99100.78;12287996;19;19915;-81
2023/10/27 15:02:17;;;;;;;;;;;14.80;64.70;;;13.80;63.92;99107.69;12286269;19;20337;-82
2023/10/27 15:06:21;;;;;;;;;;;14.80;64.80;;;13.73;64.12;99105.66;12285928;19;19910;-83
2023/10/27 15:10:23;;;;;;;;;;;14.90;65.00;;;13.77;63.97;99105.34;12282430;19;19915;-81
2023/10/27 15:14:24;;;;;;;;;;;14.90;65.00;;;13.64;63.94;99093.41;12282154;19;19922;-81
2023/10/27 15:18:26;;;;;;;;;;;14.80;64.80;;;13.73;63.90;99108.25;12286030;19;19925;-83
2023/10/27 15:22:28;;;;;;;;;;;14.90;65.60;;;13.77;63.93;99126.34;12275035;19;19918;-83
2023/10/27 15:26:32;;;;;;;;;;;14.80;64.80;;;13.73;63.97;99121.38;12283978;19;19919;-82
2023/10/27 15:30:33;;;;;;;;;;;14.80;64.70;;;13.69;63.91;99127.91;12270720;19;19915;-83
2023/10/27 15:34:35;;;;;;;;;;;14.80;64.70;;;13.71;63.89;99133.81;12267677;19;19927;-84
2023/10/27 15:38:37;;;;;;;;;;;14.80;64.80;;;13.70;63.93;99139.22;12269421;19;19937;-82
2023/10/27 15:42:42;;;;;;;;;;;14.80;64.80;;;13.73;64.05;99134.50;12267438;19;19914;-82
2023/10/27 15:46:45;;;;;;;;;;;14.80;64.80;;;13.72;64.05;99140.72;12270452;19;19946;-82
2023/10/27 15:50:47;;;;;;;;;;;14.80;64.80;;;13.73;64.01;99146.81;12263880;19;19930;-82
2023/10/27 15:54:49;;;;;;;;;;;14.90;64.90;;;13.73;64.02;99152.88;12269470;19;19915;-83
2023/10/27 15:58:50;;;;;;;;;;;14.80;64.80;;;13.72;64.06;99147.78;12269205;19;19930;-83
2023/10/27 16:02:51;;;;;;;;;;;14.80;64.80;;;13.64;63.97;99143.25;12268527;19;19978;-82
2023/10/27 16:06:57;;;;;;;;;;;14.80;64.80;;;13.52;64.02;99130.44;12267840;19;19926;-82
2023/10/27 16:11:00;;;;;;;;;;;14.80;64.80;;;13.66;63.95;99157.06;12266006;19;19950;-82
2023/10/27 16:15:01;;;;;;;;;;;14.80;64.70;;;13.65;64.03;99160.63;12262762;19;19962;-81
2023/10/27 16:19:03;;;;;;;;;;;14.80;64.80;;;13.72;64.11;99168.75;12273632;19;19942;-82
2023/10/27 16:23:08;;;;;;;;;;;14.80;64.80;;;13.71;64.05;99164.47;12262598;19;20227;-83
2023/10/27 16:27:10;;;;;;;;;;;14.80;64.70;;;13.68;64.01;99175.25;12260513;19;19959;-84
2023/10/27 16:31:12;;;;;;;;;;;14.80;64.70;;;13.66;64.11;99171.94;12263683;19;19927;-81
2023/10/27 16:35:14;;;;;;;;;;;14.80;64.60;;;13.69;64.00;99174.28;12271329;19;19923;-82
2023/10/27 16:39:15;;;;;;;;;;;14.80;64.60;;;13.66;64.08;99174.56;12260740;19;19950;-83
2023/10/27 16:43:17;;;;;;;;;;;14.80;64.70;;;13.57;64.09;99164.94;12255214;19;20005;-82
2023/10/27 16:47:19;;;;;;;;;;;14.80;64.70;;;13.61;63.97;99176.78;12266014;19;19922;-82
2023/10/27 16:51:20;;;;;;;;;;;14.80;64.60;;;13.55;63.94;99162.44;12274312;19;19922;-81
2023/10/27 16:55:21;;;;;;;;;;;14.80;64.60;;;13.61;63.93;99184.66;12283364;19;19915;-81
2023/10/27 16:59:23;;;;;;;;;;;14.80;64.60;;;13.55;63.94;99177.34;12276641;19;19951;-83
2023/10/27 17:03:24;;;;;;;;;;;14.70;64.50;;;13.62;63.85;99197.63;12273674;19;19929;-82
2023/10/27 17:07:25;;;;;;;;;;;14.70;64.60;;;13.60;63.97;99186.44;12276467;19;19922;-82
2023/10/27 17:11:27;;;;;;;;;;;14.70;64.50;;;13.58;64.02;99198.06;12273317;19;19943;-82
2023/10/27 17:15:29;;;;;;;;;;;14.70;64.60;;;13.54;64.02;99188.84;12272866;19;19930;-82
2023/10/27 17:19:30;;;;;;;;;;;14.70;64.70;;;13.60;64.05;99202.19;12272514;19;19931;-82
2023/10/27 17:23:31;;;;;;;;;;;14.70;64.60;;;13.56;63.93;99202.63;12281116;19;19934;-83
2023/10/27 17:27:34;;;;;;;;;;;14.70;64.60;;;13.55;64.05;99204.41;12272500;19;19915;-83
2023/10/27 17:31:36;;;;;;;;;;;14.70;64.50;;;13.58;64.13;99216.41;12272460;19;19934;-82
2023/10/27 17:35:38;;;;;;;;;;;14.70;64.60;;;13.46;63.90;99197.41;12259498;19;19914;-82
2023/10/27 17:39:39;;;;;;;;;;;14.70;64.50;;;13.47;64.08;99202.50;12271780;19;19929;-83
2023/10/27 17:43:41;;;;;;;;;;;14.60;64.40;;;13.42;63.93;99190.75;12280036;19;20278;-84
2023/10/27 17:47:47;;;;;;;;;;;14.70;64.50;;;13.47;63.96;99212.16;12267242;19;20290;-83
2023/10/27 17:51:48;;;;;;;;;;;14.70;64.50;;;13.46;64.07;99205.25;12272834;19;19923;-83
2023/10/27 17:55:51;;;;;;;;;;;14.60;64.40;;;13.45;63.96;99209.69;12275678;19;20316;-82
2023/10/27 17:59:53;;;;;;;;;;;14.60;64.40;;;13.45;64.00;99211.50;12283198;19;19942;-83
2023/10/27 18:03:56;;;;;;;;;;;14.50;64.40;;;13.24;63.99;99183.59;12262475;19;20004;-83
2023/10/27 18:07:57;;;;;;;;;;;14.50;64.50;;;13.39;63.96;99207.59;12263770;19;19928;-82
2023/10/27 18:11:59;;;;;;;;;;;14.50;64.60;;;13.42;64.02;99220.47;12279401;19;19919;-83
2023/10/27 18:16:05;;;;;;;;;;;14.60;64.80;;;13.45;64.03;99225.41;12281157;19;19926;-84
2023/10/27 18:20:07;;;;;;;;;;;14.50;64.80;;;13.18;63.95;99181.53;12273915;19;19929;-83